Mapleton, Maine
Current Conditions -  °F | °C
As of 7:55 AM on Monday 20 Oct 2014 (Local Time) from KPQI Reporting Station
Clear Clear  
Wind Chill: 28°   Ceiling: Unl
Heat Index: 36°   Visibility: 10mi
Dew Point: 25°   Wind: 10mph
Humidity: 65%   Direction: 280°W
Pressure: 29.79"   Gusts: NA
Location:  46.68°N, 68.16°W
Report Text: KPQI 201155Z AUTO 28009KT 10SM CLR 02/M04 A2979 RMK AO1 10030 20010 52017
Loading
Personal Weather Stations






























Interactive Weather Map
Tropical Storm Tracking
New forecast layout! Learn more

10-Day Weather Forecast

Advertisements
Track Severe Weather on mobile